Time;durP1;ratioP1;P1;durP2;ratioP2;P2;SDS_P1;SDS_P2;PMS_P1;PMS_P2;Temp;Humidity;BMP_temperature;BMP_pressure;BME280_temperature;BME280_humidity;BME280_pressure;Samples;Min_cycle;Max_cycle;Signal;HPM_P1;HPM_P2
2022/09/30 00:01:40;;;;;;;5.60;4.20;;;;;;;;;;106531;1300;33060;-36
2022/09/30 00:04:10;;;;;;;6.00;4.50;;;;;;;;;;106643;1295;33933;-36
2022/09/30 00:06:38;;;;;;;6.90;4.90;;;;;;;;;;106723;1295;34382;-36
2022/09/30 00:09:08;;;;;;;6.20;5.40;;;;;;;;;;106741;1295;34423;-36
2022/09/30 00:11:38;;;;;;;6.10;5.20;;;;;;;;;;106733;1295;34094;-36
2022/09/30 00:14:08;;;;;;;6.60;5.20;;;;;;;;;;106562;1295;33789;-37
2022/09/30 00:16:37;;;;;;;6.40;5.30;;;;;;;;;;106522;1301;33457;-36
2022/09/30 00:19:06;;;;;;;7.00;5.60;;;;;;;;;;106529;1295;33459;-36
2022/09/30 00:21:35;;;;;;;6.20;5.20;;;;;;;;;;106533;1295;34117;-37
2022/09/30 00:24:05;;;;;;;7.60;5.50;;;;;;;;;;106610;1295;34427;-36
2022/09/30 00:26:34;;;;;;;6.70;5.50;;;;;;;;;;106731;1295;34567;-36
2022/09/30 00:29:04;;;;;;;6.60;5.50;;;;;;;;;;106741;1299;34164;-36
2022/09/30 00:31:33;;;;;;;6.60;5.50;;;;;;;;;;106743;1298;33563;-36
2022/09/30 00:34:10;;;;;;;6.70;5.30;;;;;;;;;;106607;1298;34355;-36
2022/09/30 00:36:42;;;;;;;6.90;5.40;;;;;;;;;;106517;1295;34157;-36
2022/09/30 00:39:12;;;;;;;7.30;5.70;;;;;;;;;;106561;1295;34092;-36
2022/09/30 00:41:42;;;;;;;7.00;5.10;;;;;;;;;;106552;1296;34238;-36
2022/09/30 00:44:28;;;;;;;6.60;5.60;;;;;;;;;;106592;1299;34263;-36
2022/09/30 00:46:58;;;;;;;7.80;5.50;;;;;;;;;;106736;1295;34242;-36
2022/09/30 00:49:27;;;;;;;6.70;5.10;;;;;;;;;;106753;1298;34124;-37
2022/09/30 00:51:56;;;;;;;6.90;5.40;;;;;;;;;;106719;1297;34097;-36
2022/09/30 00:54:28;;;;;;;7.40;5.60;;;;;;;;;;106613;1295;34754;-37
2022/09/30 00:56:59;;;;;;;6.90;4.90;;;;;;;;;;106567;1297;34172;-36
2022/09/30 00:59:32;;;;;;;6.80;5.30;;;;;;;;;;106546;1299;33638;-36
2022/09/30 01:02:01;;;;;;;6.90;5.40;;;;;;;;;;106559;1299;34435;-36
2022/09/30 01:04:31;;;;;;;6.40;5.40;;;;;;;;;;106560;1299;33847;-36
2022/09/30 01:07:01;;;;;;;7.40;5.60;;;;;;;;;;106753;1298;34233;-36
2022/09/30 01:09:31;;;;;;;6.50;5.30;;;;;;;;;;106739;1300;33578;-36
2022/09/30 01:12:03;;;;;;;6.60;5.10;;;;;;;;;;106760;1302;33959;-36
2022/09/30 01:14:32;;;;;;;7.70;5.40;;;;;;;;;;106660;1298;33934;-36
2022/09/30 01:17:06;;;;;;;6.90;5.30;;;;;;;;;;106549;1301;33081;-36
2022/09/30 01:19:33;;;;;;;;;;;;;;;;;;106573;1298;34612;-36
2022/09/30 01:22:09;;;;;;;5.90;4.90;;;;;;;;;;106549;1295;34749;-36
2022/09/30 01:24:43;;;;;;;6.30;5.40;;;;;;;;;;106577;1301;33620;-36
2022/09/30 01:27:26;;;;;;;6.90;5.30;;;;;;;;;;106737;1295;34472;-36
2022/09/30 01:30:09;;;;;;;7.40;5.90;;;;;;;;;;106726;1295;33742;-36
2022/09/30 01:32:55;;;;;;;8.40;6.10;;;;;;;;;;106752;1299;34182;-36
2022/09/30 01:35:28;;;;;;;7.40;6.20;;;;;;;;;;106476;1301;33714;-36
2022/09/30 01:38:02;;;;;;;8.10;6.70;;;;;;;;;;106544;1298;33194;-36
2022/09/30 01:40:29;;;;;;;;;;;;;;;;;;106584;1295;34194;-36
2022/09/30 01:43:04;;;;;;;7.20;6.00;;;;;;;;;;106528;1295;34642;-36
2022/09/30 01:45:35;;;;;;;8.80;6.40;;;;;;;;;;106598;1301;34490;-36
2022/09/30 01:48:07;;;;;;;8.30;6.10;;;;;;;;;;106772;1298;33898;-37
2022/09/30 01:50:41;;;;;;;8.50;6.40;;;;;;;;;;106746;1295;33511;-37
2022/09/30 01:53:15;;;;;;;8.10;6.10;;;;;;;;;;106753;1299;33652;-37
2022/09/30 01:55:48;;;;;;;8.20;6.20;;;;;;;;;;106618;1295;34600;-36
2022/09/30 01:58:16;;;;;;;;;;;;;;;;;;106563;1295;34184;-36
2022/09/30 02:00:48;;;;;;;7.50;6.10;;;;;;;;;;106566;1302;33768;-36
2022/09/30 02:03:19;;;;;;;6.70;5.80;;;;;;;;;;106546;1303;33057;-36
2022/09/30 02:05:54;;;;;;;7.00;6.20;;;;;;;;;;106595;1300;34107;-37
2022/09/30 02:08:26;;;;;;;7.10;5.60;;;;;;;;;;106764;1296;33163;-36
2022/09/30 02:10:57;;;;;;;7.90;6.30;;;;;;;;;;106765;1295;34094;-36
2022/09/30 02:13:29;;;;;;;6.90;5.70;;;;;;;;;;106741;1299;33975;-36
2022/09/30 02:16:01;;;;;;;8.40;6.40;;;;;;;;;;106621;1302;34054;-36
2022/09/30 02:18:34;;;;;;;7.00;5.60;;;;;;;;;;106542;1295;34512;-36
2022/09/30 02:21:01;;;;;;;;;;;;;;;;;;106525;1300;34253;-36
2022/09/30 02:23:33;;;;;;;7.30;6.00;;;;;;;;;;106529;1296;34436;-36
2022/09/30 02:26:05;;;;;;;7.10;5.70;;;;;;;;;;106578;1297;33937;-36
2022/09/30 02:28:37;;;;;;;7.40;6.10;;;;;;;;;;106758;1298;33624;-36
2022/09/30 02:31:09;;;;;;;7.60;6.00;;;;;;;;;;106754;1298;33499;-36
2022/09/30 02:33:41;;;;;;;8.30;5.90;;;;;;;;;;106754;1295;33223;-36
2022/09/30 02:36:13;;;;;;;7.20;5.80;;;;;;;;;;106613;1295;34071;-36
2022/09/30 02:38:44;;;;;;;7.60;5.90;;;;;;;;;;106561;1303;32549;-36
2022/09/30 02:41:15;;;;;;;7.20;6.10;;;;;;;;;;106543;1300;33615;-36
2022/09/30 02:43:46;;;;;;;7.00;5.60;;;;;;;;;;106525;1302;33719;-36
2022/09/30 02:46:21;;;;;;;7.50;5.90;;;;;;;;;;106568;1295;33147;-36
2022/09/30 02:48:56;;;;;;;7.30;6.00;;;;;;;;;;106737;1299;34317;-36
2022/09/30 02:51:30;;;;;;;7.30;5.90;;;;;;;;;;106749;1295;34195;-36
2022/09/30 02:54:02;;;;;;;7.30;5.70;;;;;;;;;;106737;1302;33585;-36
2022/09/30 02:56:40;;;;;;;7.10;5.70;;;;;;;;;;106655;1299;33422;-36
2022/09/30 02:59:09;;;;;;;6.80;5.70;;;;;;;;;;106508;1295;34478;-36
2022/09/30 03:01:40;;;;;;;7.10;5.90;;;;;;;;;;106547;1295;34171;-36
2022/09/30 03:04:11;;;;;;;7.10;5.80;;;;;;;;;;106559;1295;34368;-36
2022/09/30 03:06:40;;;;;;;8.20;6.10;;;;;;;;;;106579;1300;34213;-36
2022/09/30 03:09:09;;;;;;;7.10;6.20;;;;;;;;;;106748;1296;33434;-36
2022/09/30 03:11:38;;;;;;;7.00;5.70;;;;;;;;;;106749;1299;33152;-36
2022/09/30 03:14:24;;;;;;;8.00;6.10;;;;;;;;;;106742;1298;34157;-36
2022/09/30 03:17:04;;;;;;;8.30;5.90;;;;;;;;;;106636;1295;34178;-36
2022/09/30 03:19:41;;;;;;;6.50;5.60;;;;;;;;;;106548;1296;34126;-36
2022/09/30 03:22:22;;;;;;;7.00;5.50;;;;;;;;;;106565;1298;33086;-36
2022/09/30 03:25:03;;;;;;;6.80;5.50;;;;;;;;;;106533;1302;34245;-36
2022/09/30 03:27:37;;;;;;;6.70;5.60;;;;;;;;;;106565;1298;34013;-36
2022/09/30 03:30:08;;;;;;;8.30;6.00;;;;;;;;;;106756;1298;33758;-36
2022/09/30 03:32:48;;;;;;;6.70;5.50;;;;;;;;;;106767;1298;33229;-36
2022/09/30 03:35:20;;;;;;;7.30;5.80;;;;;;;;;;106732;1299;33074;-36
2022/09/30 03:37:57;;;;;;;7.20;5.90;;;;;;;;;;106605;1296;33553;-36
2022/09/30 03:40:31;;;;;;;7.80;5.90;;;;;;;;;;106524;1300;33650;-36
2022/09/30 03:43:05;;;;;;;6.80;5.60;;;;;;;;;;106563;1295;33678;-36
2022/09/30 03:45:37;;;;;;;7.60;5.50;;;;;;;;;;106530;1295;34627;-36
2022/09/30 03:48:08;;;;;;;6.90;5.50;;;;;;;;;;106637;1295;34152;-36
2022/09/30 03:50:38;;;;;;;7.10;5.80;;;;;;;;;;106723;1298;34072;-36
2022/09/30 03:53:11;;;;;;;7.50;5.40;;;;;;;;;;106770;1295;34104;-36
2022/09/30 03:55:48;;;;;;;6.80;5.30;;;;;;;;;;106565;1299;33573;-36
2022/09/30 03:58:17;;;;;;;6.70;5.30;;;;;;;;;;106589;1295;34161;-36
2022/09/30 04:00:48;;;;;;;7.50;5.90;;;;;;;;;;106500;1295;33426;-36
2022/09/30 04:03:18;;;;;;;7.30;6.10;;;;;;;;;;106559;1295;34194;-36
2022/09/30 04:05:48;;;;;;;7.00;5.60;;;;;;;;;;106529;1301;33543;-36
2022/09/30 04:08:17;;;;;;;7.00;6.30;;;;;;;;;;106582;1295;34121;-36
2022/09/30 04:10:46;;;;;;;6.90;5.30;;;;;;;;;;106695;1295;33236;-36
2022/09/30 04:13:15;;;;;;;7.50;5.80;;;;;;;;;;106711;1298;33531;-36
2022/09/30 04:15:45;;;;;;;7.20;5.70;;;;;;;;;;106740;1294;33696;-36
2022/09/30 04:18:14;;;;;;;7.30;6.10;;;;;;;;;;106593;1292;34132;-36
2022/09/30 04:20:43;;;;;;;6.50;5.30;;;;;;;;;;106576;1299;33997;-36
2022/09/30 04:23:12;;;;;;;6.80;5.90;;;;;;;;;;106543;1295;33721;-36
2022/09/30 04:25:41;;;;;;;7.10;5.70;;;;;;;;;;106499;1296;34006;-36
2022/09/30 04:28:12;;;;;;;7.50;6.00;;;;;;;;;;106555;1297;34822;-37
2022/09/30 04:30:41;;;;;;;7.40;5.50;;;;;;;;;;106712;1301;33958;-36
2022/09/30 04:33:11;;;;;;;7.10;5.90;;;;;;;;;;106732;1295;34494;-36
2022/09/30 04:35:40;;;;;;;7.40;6.00;;;;;;;;;;106732;1295;34106;-36
2022/09/30 04:38:09;;;;;;;7.10;5.90;;;;;;;;;;106683;1295;33202;-36
2022/09/30 04:40:38;;;;;;;7.20;5.90;;;;;;;;;;106509;1299;33386;-36
2022/09/30 04:43:08;;;;;;;7.50;5.60;;;;;;;;;;106505;1295;34202;-37
2022/09/30 04:45:37;;;;;;;7.70;6.00;;;;;;;;;;106518;1295;34243;-37
2022/09/30 04:48:06;;;;;;;7.60;6.10;;;;;;;;;;106481;1303;33089;-37
2022/09/30 04:50:36;;;;;;;7.90;6.40;;;;;;;;;;106749;1295;34210;-37
2022/09/30 04:53:06;;;;;;;8.20;6.10;;;;;;;;;;106762;1298;33613;-35
2022/09/30 04:55:35;;;;;;;8.60;6.20;;;;;;;;;;106722;1298;33557;-36
2022/09/30 04:58:04;;;;;;;7.30;5.70;;;;;;;;;;106734;1298;33718;-36
2022/09/30 05:00:33;;;;;;;7.80;6.10;;;;;;;;;;106489;1300;46388;-36
2022/09/30 05:03:02;;;;;;;7.30;5.70;;;;;;;;;;106528;1295;34540;-36
2022/09/30 05:05:32;;;;;;;8.10;6.00;;;;;;;;;;106559;1295;34284;-36
2022/09/30 05:08:02;;;;;;;8.90;6.90;;;;;;;;;;106541;1301;34587;-37
2022/09/30 05:10:32;;;;;;;8.10;6.20;;;;;;;;;;106861;1277;34969;-35
2022/09/30 05:13:01;;;;;;;7.80;6.10;;;;;;;;;;106430;1292;34700;-38
2022/09/30 05:15:30;;;;;;;8.20;6.00;;;;;;;;;;106448;1303;33400;-35
2022/09/30 05:17:59;;;;;;;8.40;6.50;;;;;;;;;;106377;1298;34120;-36
2022/09/30 05:20:28;;;;;;;8.20;6.40;;;;;;;;;;106364;1297;34118;-36
2022/09/30 05:22:57;;;;;;;8.30;6.50;;;;;;;;;;106428;1296;33536;-36
2022/09/30 05:25:26;;;;;;;8.40;6.40;;;;;;;;;;106379;1303;34748;-36
2022/09/30 05:27:56;;;;;;;8.40;6.60;;;;;;;;;;106416;1298;34226;-36
2022/09/30 05:30:25;;;;;;;8.00;6.50;;;;;;;;;;106349;1301;33690;-38
2022/09/30 05:32:54;;;;;;;8.40;6.90;;;;;;;;;;106401;1298;33958;-36
2022/09/30 05:35:23;;;;;;;9.10;7.10;;;;;;;;;;106386;1301;33615;-36
2022/09/30 05:37:52;;;;;;;7.80;6.70;;;;;;;;;;106159;1300;34139;-37
2022/09/30 05:40:21;;;;;;;8.10;7.00;;;;;;;;;;106227;1298;34345;-36
2022/09/30 05:42:50;;;;;;;9.00;7.20;;;;;;;;;;106417;1301;33625;-36
2022/09/30 05:45:19;;;;;;;8.60;7.40;;;;;;;;;;106478;1300;33535;-36
2022/09/30 05:47:52;;;;;;;9.10;7.30;;;;;;;;;;106471;1301;34110;-38
2022/09/30 05:50:21;;;;;;;10.10;7.60;;;;;;;;;;106445;1298;33041;-38
2022/09/30 05:52:50;;;;;;;9.50;7.50;;;;;;;;;;106403;1297;34533;-37
2022/09/30 05:55:21;;;;;;;8.70;7.30;;;;;;;;;;106482;1298;34149;-36
2022/09/30 05:57:51;;;;;;;8.50;7.60;;;;;;;;;;106462;1296;34248;-36
2022/09/30 06:00:23;;;;;;;9.80;7.70;;;;;;;;;;106455;1298;34595;-36
2022/09/30 06:02:52;;;;;;;9.00;7.40;;;;;;;;;;106517;1300;34265;-36
2022/09/30 06:05:22;;;;;;;9.30;7.90;;;;;;;;;;106382;1297;189172;-37
2022/09/30 06:07:51;;;;;;;9.30;7.90;;;;;;;;;;106505;1298;34194;-37
2022/09/30 06:10:20;;;;;;;9.20;7.80;;;;;;;;;;106460;1296;33231;-37
2022/09/30 06:12:49;;;;;;;11.10;8.20;;;;;;;;;;106503;1297;34242;-37
2022/09/30 06:15:18;;;;;;;9.10;7.70;;;;;;;;;;106460;1302;33989;-36
2022/09/30 06:17:51;;;;;;;10.30;7.70;;;;;;;;;;106403;1298;33920;-36
2022/09/30 06:20:20;;;;;;;9.70;7.90;;;;;;;;;;106370;1298;33637;-40
2022/09/30 06:22:49;;;;;;;9.40;8.20;;;;;;;;;;106396;1297;34117;-39
2022/09/30 06:25:18;;;;;;;8.80;7.50;;;;;;;;;;106409;1298;34185;-36
2022/09/30 06:27:47;;;;;;;9.40;8.20;;;;;;;;;;106403;1301;33620;-37
2022/09/30 06:30:16;;;;;;;10.10;8.00;;;;;;;;;;106366;1300;33633;-37
2022/09/30 06:32:46;;;;;;;9.60;7.40;;;;;;;;;;106401;1298;35147;-37
2022/09/30 06:35:18;;;;;;;10.30;7.80;;;;;;;;;;106393;1298;34629;-33
2022/09/30 06:37:50;;;;;;;8.90;7.40;;;;;;;;;;106402;1297;34258;-34
2022/09/30 06:40:21;;;;;;;9.70;7.90;;;;;;;;;;106324;1301;34120;-36
2022/09/30 06:42:50;;;;;;;11.20;8.20;;;;;;;;;;106376;1297;41956;-36
2022/09/30 06:45:20;;;;;;;9.90;8.00;;;;;;;;;;106395;1298;34620;-34
2022/09/30 06:47:50;;;;;;;10.80;8.20;;;;;;;;;;106447;1300;33626;-33
2022/09/30 06:50:20;;;;;;;10.90;7.80;;;;;;;;;;106489;1298;33713;-35
2022/09/30 06:52:50;;;;;;;12.30;7.50;;;;;;;;;;106442;1298;34647;-34
2022/09/30 06:55:19;;;;;;;10.50;7.90;;;;;;;;;;106485;1298;34091;-32
2022/09/30 06:57:53;;;;;;;11.70;8.00;;;;;;;;;;106276;1299;34146;-32
2022/09/30 07:00:22;;;;;;;11.80;8.30;;;;;;;;;;106522;1300;34082;-33
2022/09/30 07:02:51;;;;;;;10.80;8.50;;;;;;;;;;106426;1297;34606;-34
2022/09/30 07:05:20;;;;;;;10.90;8.40;;;;;;;;;;106463;1298;34671;-36
2022/09/30 07:07:49;;;;;;;10.10;8.20;;;;;;;;;;106497;1297;34101;-35
2022/09/30 07:10:18;;;;;;;10.70;8.50;;;;;;;;;;106453;1298;34492;-35
2022/09/30 07:12:51;;;;;;;12.00;8.80;;;;;;;;;;106419;1299;34480;-35
2022/09/30 07:15:21;;;;;;;11.00;8.80;;;;;;;;;;106448;1297;33150;-35
2022/09/30 07:17:55;;;;;;;11.60;8.90;;;;;;;;;;106454;1301;33149;-35
2022/09/30 07:20:25;;;;;;;10.00;8.40;;;;;;;;;;106481;1299;34280;-35
2022/09/30 07:22:57;;;;;;;11.20;8.80;;;;;;;;;;106469;1298;34615;-35
2022/09/30 07:25:27;;;;;;;10.90;8.50;;;;;;;;;;106454;1297;34607;-35
2022/09/30 07:27:57;;;;;;;10.20;8.60;;;;;;;;;;106458;1301;34001;-35
2022/09/30 07:30:26;;;;;;;12.60;8.80;;;;;;;;;;106426;1301;34072;-36
2022/09/30 07:32:55;;;;;;;11.50;9.10;;;;;;;;;;106374;1294;33662;-36
2022/09/30 07:35:25;;;;;;;12.10;9.40;;;;;;;;;;106401;1298;34382;-36
2022/09/30 07:37:54;;;;;;;12.70;9.70;;;;;;;;;;106406;1297;34601;-35
2022/09/30 07:40:27;;;;;;;11.90;9.70;;;;;;;;;;106434;1299;34630;-35
2022/09/30 07:42:56;;;;;;;12.50;9.10;;;;;;;;;;106379;1298;34517;-34
2022/09/30 07:45:26;;;;;;;11.20;8.70;;;;;;;;;;106249;1302;34195;-34
2022/09/30 07:47:56;;;;;;;11.90;9.80;;;;;;;;;;106231;1299;34474;-35
2022/09/30 07:50:27;;;;;;;13.40;9.40;;;;;;;;;;106360;1301;33620;-33
2022/09/30 07:52:56;;;;;;;10.90;9.30;;;;;;;;;;106380;1303;34149;-34
2022/09/30 07:55:26;;;;;;;11.70;10.00;;;;;;;;;;106433;1298;34121;-32
2022/09/30 07:57:55;;;;;;;12.40;9.10;;;;;;;;;;106472;1304;34026;-32
2022/09/30 08:00:24;;;;;;;13.20;9.80;;;;;;;;;;106483;1303;34622;-32
2022/09/30 08:02:52;;;;;;;12.70;9.70;;;;;;;;;;106448;1298;33601;-34
2022/09/30 08:05:22;;;;;;;10.60;8.70;;;;;;;;;;106454;1297;33143;-33
2022/09/30 08:07:54;;;;;;;12.60;9.40;;;;;;;;;;106462;1298;34260;-33
2022/09/30 08:10:23;;;;;;;12.40;9.50;;;;;;;;;;106467;1298;34352;-34
2022/09/30 08:12:52;;;;;;;11.20;8.60;;;;;;;;;;106338;1298;34132;-35
2022/09/30 08:15:21;;;;;;;11.10;9.90;;;;;;;;;;106372;1298;34208;-35
2022/09/30 08:17:50;;;;;;;12.10;9.50;;;;;;;;;;106628;1305;30465;-33
2022/09/30 08:20:19;;;;;;;13.70;9.40;;;;;;;;;;106640;1304;22561;-35
2022/09/30 08:22:51;;;;;;;12.90;9.30;;;;;;;;;;106587;1297;23090;-34
2022/09/30 08:25:25;;;;;;;11.70;9.70;;;;;;;;;;106566;1301;22542;-35
2022/09/30 08:27:55;;;;;;;11.60;9.10;;;;;;;;;;106652;1302;25251;-35
2022/09/30 08:30:24;;;;;;;11.80;9.80;;;;;;;;;;106580;1302;25209;-36
2022/09/30 08:32:55;;;;;;;11.10;9.10;;;;;;;;;;106556;1299;22560;-38
2022/09/30 08:35:27;;;;;;;13.20;9.30;;;;;;;;;;106645;1298;23029;-36
2022/09/30 08:37:57;;;;;;;12.20;9.40;;;;;;;;;;106560;1302;22625;-33
2022/09/30 08:40:27;;;;;;;11.00;8.90;;;;;;;;;;106558;1300;23310;-34
2022/09/30 08:43:13;;;;;;;11.80;9.40;;;;;;;;;;106574;1298;22555;-34
2022/09/30 08:45:46;;;;;;;12.80;9.40;;;;;;;;;;106474;1305;22552;-33
2022/09/30 08:48:21;;;;;;;11.10;9.20;;;;;;;;;;106564;1305;22533;-33
2022/09/30 08:50:57;;;;;;;10.40;9.20;;;;;;;;;;106557;1302;22527;-33
2022/09/30 08:53:30;;;;;;;13.70;9.30;;;;;;;;;;106406;1305;22518;-37
2022/09/30 08:56:01;;;;;;;11.20;9.00;;;;;;;;;;106611;1305;22557;-37
2022/09/30 08:58:32;;;;;;;11.00;9.10;;;;;;;;;;106627;1297;22559;-37
2022/09/30 09:01:04;;;;;;;10.70;8.80;;;;;;;;;;106573;1302;23092;-37
2022/09/30 09:03:36;;;;;;;10.90;8.50;;;;;;;;;;106556;1298;23037;-37
2022/09/30 09:06:15;;;;;;;9.80;8.40;;;;;;;;;;106608;1304;22549;-36
2022/09/30 09:08:51;;;;;;;10.90;9.00;;;;;;;;;;106591;1305;22553;-36
2022/09/30 09:11:24;;;;;;;11.40;9.10;;;;;;;;;;106579;1305;22554;-37
2022/09/30 09:13:59;;;;;;;11.20;9.30;;;;;;;;;;106582;1298;23126;-38
2022/09/30 09:16:32;;;;;;;10.50;8.30;;;;;;;;;;106588;1305;25930;-39
2022/09/30 09:19:07;;;;;;;10.80;9.30;;;;;;;;;;106584;1302;22547;-37
2022/09/30 09:21:42;;;;;;;11.60;9.60;;;;;;;;;;106632;1298;23124;-37
2022/09/30 09:24:14;;;;;;;11.90;8.80;;;;;;;;;;106508;1305;25352;-37
2022/09/30 09:26:44;;;;;;;9.90;8.40;;;;;;;;;;106570;1305;25186;-37
2022/09/30 09:29:22;;;;;;;12.50;9.10;;;;;;;;;;106614;1298;22572;-37
2022/09/30 09:31:53;;;;;;;10.60;8.50;;;;;;;;;;106573;1305;22520;-37
2022/09/30 09:34:25;;;;;;;10.50;8.30;;;;;;;;;;106541;1305;22590;-36
2022/09/30 09:37:02;;;;;;;11.10;8.80;;;;;;;;;;106634;1305;22567;-36
2022/09/30 09:39:46;;;;;;;12.50;9.40;;;;;;;;;;106431;1305;25333;-38
2022/09/30 09:42:27;;;;;;;10.70;9.00;;;;;;;;;;106537;1298;23858;-38
2022/09/30 09:45:00;;;;;;;10.00;8.80;;;;;;;;;;106498;1305;25870;-36
2022/09/30 09:47:29;;;;;;;11.30;8.40;;;;;;;;;;106464;1305;22546;-37
2022/09/30 09:49:59;;;;;;;10.70;8.50;;;;;;;;;;106551;1303;22638;-39
2022/09/30 09:52:48;;;;;;;10.50;8.40;;;;;;;;;;106545;1305;25885;-41
2022/09/30 09:55:20;;;;;;;10.70;8.80;;;;;;;;;;106152;1306;25367;-37
2022/09/30 09:58:04;;;;;;;10.10;8.60;;;;;;;;;;106558;1302;22592;-37
2022/09/30 10:03:27;;;;;;;12.40;9.20;;;;;;;;;;106593;1301;23017;-38
2022/09/30 10:06:06;;;;;;;10.30;8.80;;;;;;;;;;106506;1305;23782;-37
2022/09/30 10:08:37;;;;;;;11.60;8.90;;;;;;;;;;106617;1302;22517;-37
2022/09/30 10:11:07;;;;;;;11.70;9.50;;;;;;;;;;106596;1302;22583;-37
2022/09/30 10:13:43;;;;;;;11.00;9.40;;;;;;;;;;106589;1305;22675;-38
2022/09/30 10:16:26;;;;;;;11.60;9.10;;;;;;;;;;106565;1305;24151;-37
2022/09/30 10:18:55;;;;;;;10.20;8.80;;;;;;;;;;106623;1301;22566;-37
2022/09/30 10:21:25;;;;;;;10.90;8.60;;;;;;;;;;106622;1304;25343;-38
2022/09/30 10:23:56;;;;;;;10.50;9.40;;;;;;;;;;106566;1305;22634;-37
2022/09/30 10:26:28;;;;;;;10.50;8.50;;;;;;;;;;106551;1300;22682;-38
2022/09/30 10:28:59;;;;;;;11.10;9.20;;;;;;;;;;106629;1303;23204;-37
2022/09/30 10:31:32;;;;;;;10.50;9.00;;;;;;;;;;106450;1305;22632;-37
2022/09/30 10:34:04;;;;;;;11.20;8.70;;;;;;;;;;106607;1305;22602;-37
2022/09/30 10:36:36;;;;;;;9.90;8.30;;;;;;;;;;106620;1305;22526;-37
2022/09/30 10:39:08;;;;;;;10.00;8.90;;;;;;;;;;106609;1305;22602;-38
2022/09/30 10:41:38;;;;;;;10.60;8.90;;;;;;;;;;106547;1304;22598;-38
2022/09/30 10:44:13;;;;;;;10.20;8.30;;;;;;;;;;106600;1305;22648;-37
2022/09/30 10:46:44;;;;;;;9.20;7.80;;;;;;;;;;106500;1299;22571;-38
2022/09/30 10:49:26;;;;;;;10.40;8.40;;;;;;;;;;106594;1303;22576;-36
2022/09/30 10:51:56;;;;;;;9.90;8.60;;;;;;;;;;106592;1305;22573;-39
2022/09/30 10:54:43;;;;;;;9.40;7.80;;;;;;;;;;106566;1297;23041;-38
2022/09/30 10:57:16;;;;;;;10.90;8.30;;;;;;;;;;106564;1303;22562;-38
2022/09/30 10:59:43;;;;;;;;;;;;;;;;;;106659;1303;22561;-39
2022/09/30 11:02:18;;;;;;;9.20;8.10;;;;;;;;;;106613;1298;22546;-38
2022/09/30 11:04:50;;;;;;;9.60;8.10;;;;;;;;;;106616;1305;25168;-38
2022/09/30 11:07:24;;;;;;;10.60;8.50;;;;;;;;;;106577;1297;22535;-38
2022/09/30 11:09:56;;;;;;;9.40;8.50;;;;;;;;;;106627;1305;25428;-39
2022/09/30 11:12:30;;;;;;;10.80;8.50;;;;;;;;;;106602;1305;22560;-39
2022/09/30 11:15:03;;;;;;;8.70;7.70;;;;;;;;;;106616;1297;23864;-38
2022/09/30 11:17:37;;;;;;;9.00;7.60;;;;;;;;;;106408;1305;22533;-38
2022/09/30 11:20:17;;;;;;;9.60;7.90;;;;;;;;;;106585;1305;22564;-38
2022/09/30 11:22:51;;;;;;;8.70;7.20;;;;;;;;;;106601;1305;22613;-38
2022/09/30 11:25:24;;;;;;;9.70;8.00;;;;;;;;;;106598;1305;22838;-38
2022/09/30 11:27:58;;;;;;;9.00;7.80;;;;;;;;;;106548;1305;22552;-38
2022/09/30 11:30:31;;;;;;;9.00;7.40;;;;;;;;;;106614;1297;23970;-38
2022/09/30 11:33:07;;;;;;;8.90;7.60;;;;;;;;;;106641;1298;22597;-37
2022/09/30 11:35:46;;;;;;;9.30;7.60;;;;;;;;;;106446;1299;25735;-38
2022/09/30 11:38:24;;;;;;;9.40;7.30;;;;;;;;;;106511;1297;23069;-38
2022/09/30 11:40:58;;;;;;;9.40;7.60;;;;;;;;;;106608;1305;22551;-38
2022/09/30 11:43:35;;;;;;;8.90;7.40;;;;;;;;;;106429;1304;22570;-38
2022/09/30 11:46:17;;;;;;;9.00;7.60;;;;;;;;;;106566;1303;22570;-39
2022/09/30 11:48:53;;;;;;;9.60;7.40;;;;;;;;;;106554;1293;29508;-38
2022/09/30 11:51:27;;;;;;;9.10;7.30;;;;;;;;;;106554;1297;23176;-39
2022/09/30 11:54:03;;;;;;;9.00;7.20;;;;;;;;;;106584;1298;23073;-38
2022/09/30 11:56:39;;;;;;;9.70;7.70;;;;;;;;;;106573;1298;23127;-38
2022/09/30 11:59:14;;;;;;;10.60;8.10;;;;;;;;;;106521;1298;28814;-38
2022/09/30 12:01:44;;;;;;;10.30;7.50;;;;;;;;;;106618;1298;23104;-38
2022/09/30 12:04:15;;;;;;;10.30;7.40;;;;;;;;;;106616;1301;22603;-37
2022/09/30 12:06:49;;;;;;;10.50;7.70;;;;;;;;;;106568;1305;25167;-38
2022/09/30 12:09:21;;;;;;;10.20;7.90;;;;;;;;;;106585;1297;24046;-37
2022/09/30 12:11:54;;;;;;;9.60;7.20;;;;;;;;;;106586;1302;22683;-38
2022/09/30 12:14:26;;;;;;;10.20;6.90;;;;;;;;;;106591;1305;23193;-38
2022/09/30 12:16:56;;;;;;;10.70;7.40;;;;;;;;;;106594;1299;22771;-38
2022/09/30 12:19:32;;;;;;;8.90;6.60;;;;;;;;;;106396;1303;22517;-38
2022/09/30 12:22:07;;;;;;;8.80;6.90;;;;;;;;;;106619;1304;22660;-38
2022/09/30 12:24:40;;;;;;;8.40;6.80;;;;;;;;;;106632;1297;23796;-38
2022/09/30 12:27:14;;;;;;;10.20;6.90;;;;;;;;;;106571;1298;24716;-38
2022/09/30 12:32:49;;;;;;;8.70;6.70;;;;;;;;;;106589;1297;23037;-38
2022/09/30 12:35:43;;;;;;;8.40;6.60;;;;;;;;;;106584;1305;25227;-38
2022/09/30 12:38:20;;;;;;;9.30;6.80;;;;;;;;;;106509;1299;23258;-37
2022/09/30 12:40:54;;;;;;;8.50;6.70;;;;;;;;;;106579;1302;22509;-37
2022/09/30 12:43:31;;;;;;;8.50;6.50;;;;;;;;;;106557;1297;23134;-36
2022/09/30 12:46:13;;;;;;;8.10;6.30;;;;;;;;;;106631;1305;22518;-37
2022/09/30 12:48:44;;;;;;;8.40;6.70;;;;;;;;;;106538;1302;22568;-34
2022/09/30 12:51:21;;;;;;;7.90;6.30;;;;;;;;;;106615;1305;22531;-34
2022/09/30 12:53:54;;;;;;;9.10;6.50;;;;;;;;;;106567;1305;22665;-34
2022/09/30 12:56:26;;;;;;;8.30;6.60;;;;;;;;;;106625;1303;25391;-34
2022/09/30 12:58:56;;;;;;;7.70;6.20;;;;;;;;;;106527;1297;22601;-34
2022/09/30 13:01:26;;;;;;;8.50;6.30;;;;;;;;;;106557;1303;22558;-34
2022/09/30 13:07:11;;;;;;;7.90;6.10;;;;;;;;;;102619;1333;555853;-40
2022/09/30 13:09:54;;;;;;;8.50;6.50;;;;;;;;;;105542;1311;23147;-38
2022/09/30 13:12:27;;;;;;;8.10;6.20;;;;;;;;;;105695;1311;22697;-37
2022/09/30 13:15:14;;;;;;;8.20;6.10;;;;;;;;;;105759;1308;23140;-38
2022/09/30 13:17:44;;;;;;;7.70;5.90;;;;;;;;;;105538;1304;23368;-38
2022/09/30 13:20:30;;;;;;;8.20;5.80;;;;;;;;;;105752;1310;300784;-39
2022/09/30 13:23:01;;;;;;;7.40;5.70;;;;;;;;;;106118;1307;22947;-38
2022/09/30 13:25:52;;;;;;;7.30;5.70;;;;;;;;;;106086;1304;22562;-38
2022/09/30 13:28:31;;;;;;;7.30;5.80;;;;;;;;;;106147;1309;30518;-39
2022/09/30 13:31:14;;;;;;;7.80;5.80;;;;;;;;;;106240;1301;23854;-39
2022/09/30 13:33:44;;;;;;;7.70;5.50;;;;;;;;;;106156;1307;25228;-39
2022/09/30 13:36:27;;;;;;;7.50;5.70;;;;;;;;;;106188;1308;22538;-39
2022/09/30 13:39:13;;;;;;;8.70;6.00;;;;;;;;;;106111;1304;28713;-38
2022/09/30 13:41:43;;;;;;;8.00;5.70;;;;;;;;;;106047;1302;22627;-37
2022/09/30 13:44:15;;;;;;;7.90;5.80;;;;;;;;;;106134;1310;23841;-38
2022/09/30 13:46:48;;;;;;;7.70;5.70;;;;;;;;;;106083;1299;22814;-38
2022/09/30 13:49:21;;;;;;;7.90;5.70;;;;;;;;;;106116;1308;22730;-38
2022/09/30 13:51:51;;;;;;;6.80;5.10;;;;;;;;;;106220;1302;22923;-37
2022/09/30 13:54:25;;;;;;;7.40;5.70;;;;;;;;;;106121;1301;23574;-37
2022/09/30 13:56:55;;;;;;;7.30;5.00;;;;;;;;;;106171;1308;22645;-37
2022/09/30 13:59:32;;;;;;;7.00;5.10;;;;;;;;;;106098;1303;30175;-38
2022/09/30 14:02:08;;;;;;;7.00;5.50;;;;;;;;;;106129;1303;23802;-38
2022/09/30 14:04:46;;;;;;;7.20;5.10;;;;;;;;;;106111;1310;22626;-38
2022/09/30 14:07:17;;;;;;;7.40;5.20;;;;;;;;;;106095;1304;22610;-37
2022/09/30 14:09:51;;;;;;;7.10;5.20;;;;;;;;;;106123;1303;23995;-36
2022/09/30 14:12:27;;;;;;;7.40;5.10;;;;;;;;;;106101;1306;22640;-34
2022/09/30 14:15:07;;;;;;;6.80;4.90;;;;;;;;;;106101;1310;22560;-36
2022/09/30 14:17:46;;;;;;;6.00;4.90;;;;;;;;;;106433;1298;22539;-36
2022/09/30 14:20:27;;;;;;;6.90;5.10;;;;;;;;;;106537;1305;22565;-36
2022/09/30 14:22:56;;;;;;;7.60;4.90;;;;;;;;;;106417;1306;24297;-36
2022/09/30 14:25:25;;;;;;;6.90;5.20;;;;;;;;;;106544;1298;22580;-36
2022/09/30 14:28:00;;;;;;;6.40;5.00;;;;;;;;;;106423;1298;23188;-37
2022/09/30 14:30:33;;;;;;;7.40;5.10;;;;;;;;;;106417;1301;22560;-38
2022/09/30 14:33:05;;;;;;;6.70;4.60;;;;;;;;;;106445;1300;22578;-38
2022/09/30 14:35:35;;;;;;;7.10;5.00;;;;;;;;;;106636;1298;22525;-38
2022/09/30 14:38:08;;;;;;;7.30;5.00;;;;;;;;;;106567;1297;22539;-38
2022/09/30 14:40:39;;;;;;;;;;;;;;;;;;106643;1297;23977;-38
2022/09/30 14:43:14;;;;;;;6.70;4.80;;;;;;;;;;106625;1301;22555;-38
2022/09/30 14:45:45;;;;;;;6.60;5.10;;;;;;;;;;106662;1298;22551;-38
2022/09/30 14:48:17;;;;;;;7.20;4.80;;;;;;;;;;106583;1304;22563;-38
2022/09/30 14:50:48;;;;;;;6.00;4.70;;;;;;;;;;106651;1302;22538;-38
2022/09/30 14:53:26;;;;;;;6.60;4.70;;;;;;;;;;106582;1302;22549;-38
2022/09/30 14:55:58;;;;;;;6.80;4.70;;;;;;;;;;106594;1305;22567;-38
2022/09/30 14:58:29;;;;;;;6.50;5.20;;;;;;;;;;106607;1297;23460;-38
2022/09/30 15:01:04;;;;;;;6.40;4.70;;;;;;;;;;106633;1299;25235;-38
2022/09/30 15:03:39;;;;;;;6.50;4.90;;;;;;;;;;106503;1301;22544;-38
2022/09/30 15:06:17;;;;;;;6.50;4.60;;;;;;;;;;106667;1298;23178;-38
2022/09/30 15:08:47;;;;;;;7.20;4.90;;;;;;;;;;106629;1298;23789;-38